sensor_id;sensor_type;location;lat;lon;timestamp;temperature;humidity
65559;DHT22;52203;51.998;5.140;2023-04-04T00:26:25;-2.98;118.99
65559;DHT22;52203;51.998;5.140;2023-04-04T00:29:03;-3.05;118.99
65559;DHT22;52203;51.998;5.140;2023-04-04T00:50:23;-3.03;118.99
65559;DHT22;52203;51.998;5.140;2023-04-04T01:08:27;-2.93;118.99
65559;DHT22;52203;51.998;5.140;2023-04-04T01:10:53;-2.94;118.99
65559;DHT22;52203;51.998;5.140;2023-04-04T01:38:29;-3.23;118.99
65559;DHT22;52203;51.998;5.140;2023-04-04T01:51:53;-3.58;118.99
65559;DHT22;52203;51.998;5.140;2023-04-04T02:06:18;-3.81;118.99
65559;DHT22;52203;51.998;5.140;2023-04-04T02:08:52;-3.92;118.99
65559;DHT22;52203;51.998;5.140;2023-04-04T03:27:31;-4.12;118.99
65559;DHT22;52203;51.998;5.140;2023-04-04T03:33:19;-4.20;118.99
65559;DHT22;52203;51.998;5.140;2023-04-04T03:39:38;-4.37;118.99
65559;DHT22;52203;51.998;5.140;2023-04-04T03:45:51;-4.38;118.99
65559;DHT22;52203;51.998;5.140;2023-04-04T04:35:09;-5.16;118.99
65559;DHT22;52203;51.998;5.140;2023-04-04T05:07:45;-5.39;118.99
65559;DHT22;52203;51.998;5.140;2023-04-04T05:50:55;-5.03;118.99
65559;DHT22;52203;51.998;5.140;2023-04-04T05:53:44;-4.95;118.99
65559;DHT22;52203;51.998;5.140;2023-04-04T06:46:30;-0.57;118.99
65559;DHT22;52203;51.998;5.140;2023-04-04T06:48:57;-0.24;118.99
65559;DHT22;52203;51.998;5.140;2023-04-04T06:51:23;0.59;118.99
65559;DHT22;52203;51.998;5.140;2023-04-04T06:53:49;3.09;118.99
65559;DHT22;52203;51.998;5.140;2023-04-04T06:56:15;4.65;118.99
65559;DHT22;52203;51.998;5.140;2023-04-04T06:58:40;5.91;118.99
65559;DHT22;52203;51.998;5.140;2023-04-04T07:01:07;7.41;118.99
65559;DHT22;52203;51.998;5.140;2023-04-04T07:03:33;8.51;118.99
65559;DHT22;52203;51.998;5.140;2023-04-04T07:06:02;9.17;118.99
65559;DHT22;52203;51.998;5.140;2023-04-04T07:08:28;9.69;118.99
65559;DHT22;52203;51.998;5.140;2023-04-04T07:10:55;11.90;118.99
65559;DHT22;52203;51.998;5.140;2023-04-04T07:13:21;12.57;118.99
65559;DHT22;52203;51.998;5.140;2023-04-04T07:15:46;13.24;118.99
65559;DHT22;52203;51.998;5.140;2023-04-04T07:18:14;14.35;118.99
65559;DHT22;52203;51.998;5.140;2023-04-04T07:20:40;14.58;118.99
65559;DHT22;52203;51.998;5.140;2023-04-04T07:23:05;14.56;118.99
65559;DHT22;52203;51.998;5.140;2023-04-04T07:25:31;13.64;118.99
65559;DHT22;52203;51.998;5.140;2023-04-04T07:27:57;12.87;118.99
65559;DHT22;52203;51.998;5.140;2023-04-04T07:30:22;12.66;118.99
65559;DHT22;52203;51.998;5.140;2023-04-04T07:32:58;12.44;118.99
65559;DHT22;52203;51.998;5.140;2023-04-04T07:35:24;12.91;118.99
65559;DHT22;52203;51.998;5.140;2023-04-04T07:37:50;11.42;118.99
65559;DHT22;52203;51.998;5.140;2023-04-04T07:40:16;11.85;118.99
65559;DHT22;52203;51.998;5.140;2023-04-04T07:42:46;13.27;118.99
65559;DHT22;52203;51.998;5.140;2023-04-04T07:45:15;13.29;118.99
65559;DHT22;52203;51.998;5.140;2023-04-04T07:47:44;12.57;118.99
65559;DHT22;52203;51.998;5.140;2023-04-04T07:50:13;12.90;118.99
65559;DHT22;52203;51.998;5.140;2023-04-04T07:52:40;14.59;118.99
65559;DHT22;52203;51.998;5.140;2023-04-04T07:55:06;13.74;118.99
65559;DHT22;52203;51.998;5.140;2023-04-04T07:57:39;13.65;118.99
65559;DHT22;52203;51.998;5.140;2023-04-04T08:00:06;13.85;118.99
65559;DHT22;52203;51.998;5.140;2023-04-04T08:02:35;14.78;118.99
65559;DHT22;52203;51.998;5.140;2023-04-04T08:05:00;16.15;118.99
65559;DHT22;52203;51.998;5.140;2023-04-04T08:07:26;16.47;118.99
65559;DHT22;52203;51.998;5.140;2023-04-04T08:09:51;16.31;118.99
65559;DHT22;52203;51.998;5.140;2023-04-04T08:12:17;17.02;118.99
65559;DHT22;52203;51.998;5.140;2023-04-04T08:14:42;17.96;118.99
65559;DHT22;52203;51.998;5.140;2023-04-04T08:17:08;18.24;118.99
65559;DHT22;52203;51.998;5.140;2023-04-04T08:19:33;14.52;118.99
65559;DHT22;52203;51.998;5.140;2023-04-04T08:21:59;14.78;118.99
65559;DHT22;52203;51.998;5.140;2023-04-04T08:24:25;16.12;118.99
65559;DHT22;52203;51.998;5.140;2023-04-04T08:26:51;16.67;118.99
65559;DHT22;52203;51.998;5.140;2023-04-04T08:29:16;15.38;118.99
65559;DHT22;52203;51.998;5.140;2023-04-04T08:31:42;15.75;118.99
65559;DHT22;52203;51.998;5.140;2023-04-04T08:34:07;17.28;118.99
65559;DHT22;52203;51.998;5.140;2023-04-04T08:36:34;18.20;118.99
65559;DHT22;52203;51.998;5.140;2023-04-04T08:39:00;18.54;118.99
65559;DHT22;52203;51.998;5.140;2023-04-04T08:41:26;16.01;118.99
65559;DHT22;52203;51.998;5.140;2023-04-04T08:43:52;14.54;118.99
65559;DHT22;52203;51.998;5.140;2023-04-04T08:46:21;15.07;118.99
65559;DHT22;52203;51.998;5.140;2023-04-04T08:48:49;16.42;118.99
65559;DHT22;52203;51.998;5.140;2023-04-04T08:51:16;13.89;118.99
65559;DHT22;52203;51.998;5.140;2023-04-04T08:53:43;18.71;118.99
65559;DHT22;52203;51.998;5.140;2023-04-04T08:56:09;17.65;118.99
65559;DHT22;52203;51.998;5.140;2023-04-04T08:58:34;16.92;118.99
65559;DHT22;52203;51.998;5.140;2023-04-04T09:01:02;14.67;118.99
65559;DHT22;52203;51.998;5.140;2023-04-04T09:03:28;12.05;118.99
65559;DHT22;52203;51.998;5.140;2023-04-04T09:05:57;10.57;118.99
65559;DHT22;52203;51.998;5.140;2023-04-04T09:08:23;8.94;118.99
65559;DHT22;52203;51.998;5.140;2023-04-04T09:10:50;9.65;118.99
65559;DHT22;52203;51.998;5.140;2023-04-04T09:13:16;9.65;118.99
65559;DHT22;52203;51.998;5.140;2023-04-04T09:15:46;9.71;118.99
65559;DHT22;52203;51.998;5.140;2023-04-04T09:18:12;9.72;118.99
65559;DHT22;52203;51.998;5.140;2023-04-04T09:20:42;9.90;118.99
65559;DHT22;52203;51.998;5.140;2023-04-04T09:23:10;9.57;118.99
65559;DHT22;52203;51.998;5.140;2023-04-04T09:25:37;9.46;118.99
65559;DHT22;52203;51.998;5.140;2023-04-04T09:28:07;9.16;118.99
65559;DHT22;52203;51.998;5.140;2023-04-04T09:30:33;9.19;118.99
65559;DHT22;52203;51.998;5.140;2023-04-04T09:33:04;8.98;118.99
65559;DHT22;52203;51.998;5.140;2023-04-04T09:35:37;8.80;118.99
65559;DHT22;52203;51.998;5.140;2023-04-04T09:38:04;7.47;118.99
65559;DHT22;52203;51.998;5.140;2023-04-04T09:40:30;8.08;118.99
65559;DHT22;52203;51.998;5.140;2023-04-04T09:43:00;8.09;118.99
65559;DHT22;52203;51.998;5.140;2023-04-04T09:45:26;8.30;118.99
65559;DHT22;52203;51.998;5.140;2023-04-04T09:47:52;8.37;118.99
65559;DHT22;52203;51.998;5.140;2023-04-04T09:50:23;8.32;118.99
65559;DHT22;52203;51.998;5.140;2023-04-04T09:52:49;8.52;118.99
65559;DHT22;52203;51.998;5.140;2023-04-04T09:55:15;7.81;118.99
65559;DHT22;52203;51.998;5.140;2023-04-04T09:57:41;8.28;118.99
65559;DHT22;52203;51.998;5.140;2023-04-04T10:00:07;8.05;118.99
65559;DHT22;52203;51.998;5.140;2023-04-04T10:02:36;8.09;118.99
65559;DHT22;52203;51.998;5.140;2023-04-04T10:05:07;7.99;118.99
65559;DHT22;52203;51.998;5.140;2023-04-04T10:07:37;8.72;118.99
65559;DHT22;52203;51.998;5.140;2023-04-04T10:10:05;9.20;118.99
65559;DHT22;52203;51.998;5.140;2023-04-04T10:12:31;9.04;118.99
65559;DHT22;52203;51.998;5.140;2023-04-04T10:14:58;8.98;118.99
65559;DHT22;52203;51.998;5.140;2023-04-04T10:17:28;8.34;118.99
65559;DHT22;52203;51.998;5.140;2023-04-04T10:19:59;8.92;118.99
65559;DHT22;52203;51.998;5.140;2023-04-04T10:22:26;9.39;118.99
65559;DHT22;52203;51.998;5.140;2023-04-04T10:24:51;9.29;118.99
65559;DHT22;52203;51.998;5.140;2023-04-04T10:27:19;9.06;118.99
65559;DHT22;52203;51.998;5.140;2023-04-04T10:29:44;9.49;118.99
65559;DHT22;52203;51.998;5.140;2023-04-04T10:32:22;9.52;118.99
65559;DHT22;52203;51.998;5.140;2023-04-04T10:35:02;8.74;118.99
65559;DHT22;52203;51.998;5.140;2023-04-04T10:37:31;8.91;118.99
65559;DHT22;52203;51.998;5.140;2023-04-04T10:40:15;9.15;118.99
65559;DHT22;52203;51.998;5.140;2023-04-04T10:42:44;8.05;118.99
65559;DHT22;52203;51.998;5.140;2023-04-04T10:45:12;8.64;118.99
65559;DHT22;52203;51.998;5.140;2023-04-04T10:47:39;7.15;118.99
65559;DHT22;52203;51.998;5.140;2023-04-04T10:50:06;8.29;118.99
65559;DHT22;52203;51.998;5.140;2023-04-04T10:52:35;8.44;118.99
65559;DHT22;52203;51.998;5.140;2023-04-04T10:55:03;8.63;118.99
65559;DHT22;52203;51.998;5.140;2023-04-04T10:57:32;8.60;118.99
65559;DHT22;52203;51.998;5.140;2023-04-04T11:00:00;8.66;118.99
65559;DHT22;52203;51.998;5.140;2023-04-04T11:02:57;8.63;118.99
65559;DHT22;52203;51.998;5.140;2023-04-04T11:05:37;8.66;118.99
65559;DHT22;52203;51.998;5.140;2023-04-04T11:08:14;8.56;118.99
65559;DHT22;52203;51.998;5.140;2023-04-04T11:10:46;8.41;118.99
65559;DHT22;52203;51.998;5.140;2023-04-04T11:13:23;8.67;118.99
65559;DHT22;52203;51.998;5.140;2023-04-04T11:15:57;8.94;118.99
65559;DHT22;52203;51.998;5.140;2023-04-04T11:21:07;8.16;118.99
65559;DHT22;52203;51.998;5.140;2023-04-04T11:28:58;7.92;118.99
65559;DHT22;52203;51.998;5.140;2023-04-04T11:31:26;8.50;118.99
65559;DHT22;52203;51.998;5.140;2023-04-04T11:34:09;8.72;118.99
65559;DHT22;52203;51.998;5.140;2023-04-04T11:44:26;8.06;118.99
65559;DHT22;52203;51.998;5.140;2023-04-04T11:49:29;8.12;118.99
65559;DHT22;52203;51.998;5.140;2023-04-04T11:51:56;8.20;118.99
65559;DHT22;52203;51.998;5.140;2023-04-04T11:54:22;8.26;118.99
65559;DHT22;52203;51.998;5.140;2023-04-04T11:56:48;7.79;118.99
65559;DHT22;52203;51.998;5.140;2023-04-04T11:59:20;8.13;118.99
65559;DHT22;52203;51.998;5.140;2023-04-04T12:01:47;8.27;118.99
65559;DHT22;52203;51.998;5.140;2023-04-04T12:04:19;8.47;118.99
65559;DHT22;52203;51.998;5.140;2023-04-04T12:06:49;8.33;118.99
65559;DHT22;52203;51.998;5.140;2023-04-04T12:09:16;8.19;118.99
65559;DHT22;52203;51.998;5.140;2023-04-04T12:11:43;8.15;118.99
65559;DHT22;52203;51.998;5.140;2023-04-04T12:14:19;7.63;118.99
65559;DHT22;52203;51.998;5.140;2023-04-04T12:16:50;7.83;118.99
65559;DHT22;52203;51.998;5.140;2023-04-04T12:19:16;7.88;118.99
65559;DHT22;52203;51.998;5.140;2023-04-04T12:21:45;7.89;118.99
65559;DHT22;52203;51.998;5.140;2023-04-04T12:24:11;8.19;118.99
65559;DHT22;52203;51.998;5.140;2023-04-04T12:26:40;7.82;118.99
65559;DHT22;52203;51.998;5.140;2023-04-04T12:29:10;7.45;118.99
65559;DHT22;52203;51.998;5.140;2023-04-04T12:31:38;7.78;118.99
65559;DHT22;52203;51.998;5.140;2023-04-04T12:34:04;7.76;118.99
65559;DHT22;52203;51.998;5.140;2023-04-04T12:36:30;7.93;118.99
65559;DHT22;52203;51.998;5.140;2023-04-04T12:39:07;7.74;118.99
65559;DHT22;52203;51.998;5.140;2023-04-04T12:41:33;7.27;118.99
65559;DHT22;52203;51.998;5.140;2023-04-04T12:44:05;7.76;118.99
65559;DHT22;52203;51.998;5.140;2023-04-04T12:46:39;7.89;118.99
65559;DHT22;52203;51.998;5.140;2023-04-04T12:49:06;8.04;118.99
65559;DHT22;52203;51.998;5.140;2023-04-04T12:51:34;8.18;118.99
65559;DHT22;52203;51.998;5.140;2023-04-04T12:54:00;7.85;118.99
65559;DHT22;52203;51.998;5.140;2023-04-04T12:56:26;8.15;118.99
65559;DHT22;52203;51.998;5.140;2023-04-04T12:58:52;8.19;118.99
65559;DHT22;52203;51.998;5.140;2023-04-04T13:01:19;7.35;118.99
65559;DHT22;52203;51.998;5.140;2023-04-04T13:03:45;8.02;118.99
65559;DHT22;52203;51.998;5.140;2023-04-04T13:06:16;8.29;118.99
65559;DHT22;52203;51.998;5.140;2023-04-04T13:08:49;8.62;118.99
65559;DHT22;52203;51.998;5.140;2023-04-04T13:11:16;7.93;118.99
65559;DHT22;52203;51.998;5.140;2023-04-04T13:13:41;9.01;118.99
65559;DHT22;52203;51.998;5.140;2023-04-04T13:16:09;9.03;118.99
65559;DHT22;52203;51.998;5.140;2023-04-04T13:18:37;8.74;118.99
65559;DHT22;52203;51.998;5.140;2023-04-04T13:21:04;8.85;118.99
65559;DHT22;52203;51.998;5.140;2023-04-04T13:23:34;8.76;118.99
65559;DHT22;52203;51.998;5.140;2023-04-04T13:26:02;8.43;118.99
65559;DHT22;52203;51.998;5.140;2023-04-04T13:28:29;8.23;118.99
65559;DHT22;52203;51.998;5.140;2023-04-04T13:30:54;8.64;118.99
65559;DHT22;52203;51.998;5.140;2023-04-04T13:33:21;8.55;118.99
65559;DHT22;52203;51.998;5.140;2023-04-04T13:35:47;8.76;118.99
65559;DHT22;52203;51.998;5.140;2023-04-04T13:38:13;8.75;118.99
65559;DHT22;52203;51.998;5.140;2023-04-04T13:40:39;8.07;118.99
65559;DHT22;52203;51.998;5.140;2023-04-04T13:43:05;7.53;118.99
65559;DHT22;52203;51.998;5.140;2023-04-04T13:45:34;7.73;118.99
65559;DHT22;52203;51.998;5.140;2023-04-04T13:48:00;7.73;118.99
65559;DHT22;52203;51.998;5.140;2023-04-04T13:50:26;7.99;118.99
65559;DHT22;52203;51.998;5.140;2023-04-04T13:52:51;7.43;118.99
65559;DHT22;52203;51.998;5.140;2023-04-04T13:55:18;8.56;118.99
65559;DHT22;52203;51.998;5.140;2023-04-04T13:57:44;7.75;118.99
65559;DHT22;52203;51.998;5.140;2023-04-04T14:00:10;7.93;118.99
65559;DHT22;52203;51.998;5.140;2023-04-04T14:02:37;7.22;118.99
65559;DHT22;52203;51.998;5.140;2023-04-04T14:05:03;7.32;118.99
65559;DHT22;52203;51.998;5.140;2023-04-04T14:07:28;7.75;118.99
65559;DHT22;52203;51.998;5.140;2023-04-04T14:09:54;7.83;118.99
65559;DHT22;52203;51.998;5.140;2023-04-04T14:12:19;8.03;118.99
65559;DHT22;52203;51.998;5.140;2023-04-04T14:14:45;8.17;118.99
65559;DHT22;52203;51.998;5.140;2023-04-04T14:17:10;7.83;118.99
65559;DHT22;52203;51.998;5.140;2023-04-04T14:19:37;7.96;118.99
65559;DHT22;52203;51.998;5.140;2023-04-04T14:22:02;7.89;118.99
65559;DHT22;52203;51.998;5.140;2023-04-04T14:24:29;7.61;118.99
65559;DHT22;52203;51.998;5.140;2023-04-04T14:26:55;7.12;118.99
65559;DHT22;52203;51.998;5.140;2023-04-04T14:29:21;7.20;118.99
65559;DHT22;52203;51.998;5.140;2023-04-04T14:31:47;7.44;118.99
65559;DHT22;52203;51.998;5.140;2023-04-04T14:34:12;7.19;118.99
65559;DHT22;52203;51.998;5.140;2023-04-04T14:36:38;7.35;118.99
65559;DHT22;52203;51.998;5.140;2023-04-04T14:39:03;7.40;118.99
65559;DHT22;52203;51.998;5.140;2023-04-04T14:41:29;7.35;118.99
65559;DHT22;52203;51.998;5.140;2023-04-04T14:43:54;7.09;118.99
65559;DHT22;52203;51.998;5.140;2023-04-04T14:46:20;7.10;118.99
65559;DHT22;52203;51.998;5.140;2023-04-04T14:48:46;7.08;118.99
65559;DHT22;52203;51.998;5.140;2023-04-04T14:51:11;7.28;118.99
65559;DHT22;52203;51.998;5.140;2023-04-04T14:53:37;7.15;118.99
65559;DHT22;52203;51.998;5.140;2023-04-04T14:56:02;6.88;118.99
65559;DHT22;52203;51.998;5.140;2023-04-04T14:58:28;6.79;118.99
65559;DHT22;52203;51.998;5.140;2023-04-04T15:00:53;6.79;118.99
65559;DHT22;52203;51.998;5.140;2023-04-04T15:03:19;6.87;118.99
65559;DHT22;52203;51.998;5.140;2023-04-04T15:05:47;7.00;118.99
65559;DHT22;52203;51.998;5.140;2023-04-04T15:08:12;6.81;118.99
65559;DHT22;52203;51.998;5.140;2023-04-04T15:10:38;6.88;118.99
65559;DHT22;52203;51.998;5.140;2023-04-04T15:13:03;6.94;118.99
65559;DHT22;52203;51.998;5.140;2023-04-04T15:15:29;7.09;118.99
65559;DHT22;52203;51.998;5.140;2023-04-04T15:17:54;6.87;118.99
65559;DHT22;52203;51.998;5.140;2023-04-04T15:20:20;6.78;118.99
65559;DHT22;52203;51.998;5.140;2023-04-04T15:22:46;6.99;118.99
65559;DHT22;52203;51.998;5.140;2023-04-04T15:25:11;6.87;118.99
65559;DHT22;52203;51.998;5.140;2023-04-04T15:27:37;6.75;118.99
65559;DHT22;52203;51.998;5.140;2023-04-04T15:30:03;6.68;118.99
65559;DHT22;52203;51.998;5.140;2023-04-04T15:32:28;6.83;118.99
65559;DHT22;52203;51.998;5.140;2023-04-04T15:34:54;6.98;118.99
65559;DHT22;52203;51.998;5.140;2023-04-04T15:37:23;7.14;118.99
65559;DHT22;52203;51.998;5.140;2023-04-04T15:39:48;6.89;118.99
65559;DHT22;52203;51.998;5.140;2023-04-04T15:42:13;6.79;118.99
65559;DHT22;52203;51.998;5.140;2023-04-04T15:44:40;7.03;118.99
65559;DHT22;52203;51.998;5.140;2023-04-04T15:47:06;6.91;118.99
65559;DHT22;52203;51.998;5.140;2023-04-04T15:49:31;7.08;118.99
65559;DHT22;52203;51.998;5.140;2023-04-04T15:52:00;6.78;118.99
65559;DHT22;52203;51.998;5.140;2023-04-04T15:54:25;6.59;118.99
65559;DHT22;52203;51.998;5.140;2023-04-04T15:56:53;6.65;118.99
65559;DHT22;52203;51.998;5.140;2023-04-04T15:59:18;8.13;118.99
65559;DHT22;52203;51.998;5.140;2023-04-04T16:01:44;7.61;118.99
65559;DHT22;52203;51.998;5.140;2023-04-04T16:04:11;6.49;118.99
65559;DHT22;52203;51.998;5.140;2023-04-04T16:06:36;6.69;118.99
65559;DHT22;52203;51.998;5.140;2023-04-04T16:09:02;6.44;118.99
65559;DHT22;52203;51.998;5.140;2023-04-04T16:11:27;6.46;118.99
65559;DHT22;52203;51.998;5.140;2023-04-04T16:13:53;6.31;118.99
65559;DHT22;52203;51.998;5.140;2023-04-04T16:16:18;6.36;118.99
65559;DHT22;52203;51.998;5.140;2023-04-04T16:18:44;6.35;118.99
65559;DHT22;52203;51.998;5.140;2023-04-04T16:21:09;6.07;118.99
65559;DHT22;52203;51.998;5.140;2023-04-04T16:23:35;5.91;118.99
65559;DHT22;52203;51.998;5.140;2023-04-04T16:26:00;5.79;118.99
65559;DHT22;52203;51.998;5.140;2023-04-04T16:28:26;5.83;118.99
65559;DHT22;52203;51.998;5.140;2023-04-04T16:30:52;5.61;118.99
65559;DHT22;52203;51.998;5.140;2023-04-04T16:33:17;5.54;118.99
65559;DHT22;52203;51.998;5.140;2023-04-04T16:35:43;5.61;118.99
65559;DHT22;52203;51.998;5.140;2023-04-04T16:38:09;5.60;118.99
65559;DHT22;52203;51.998;5.140;2023-04-04T16:40:34;5.59;118.99
65559;DHT22;52203;51.998;5.140;2023-04-04T16:43:00;5.56;118.99
65559;DHT22;52203;51.998;5.140;2023-04-04T16:45:26;5.54;118.99
65559;DHT22;52203;51.998;5.140;2023-04-04T16:47:51;5.40;118.99
65559;DHT22;52203;51.998;5.140;2023-04-04T16:50:17;5.13;118.99
65559;DHT22;52203;51.998;5.140;2023-04-04T16:52:42;5.08;118.99
65559;DHT22;52203;51.998;5.140;2023-04-04T16:55:08;4.91;118.99
65559;DHT22;52203;51.998;5.140;2023-04-04T16:57:34;5.00;118.99
65559;DHT22;52203;51.998;5.140;2023-04-04T17:00:00;4.93;118.99
65559;DHT22;52203;51.998;5.140;2023-04-04T17:02:25;4.91;118.99
65559;DHT22;52203;51.998;5.140;2023-04-04T17:04:51;4.86;118.99
65559;DHT22;52203;51.998;5.140;2023-04-04T17:07:18;4.83;118.99
65559;DHT22;52203;51.998;5.140;2023-04-04T17:09:44;4.69;118.99
65559;DHT22;52203;51.998;5.140;2023-04-04T17:12:10;5.94;118.99
65559;DHT22;52203;51.998;5.140;2023-04-04T17:14:36;5.91;118.99
65559;DHT22;52203;51.998;5.140;2023-04-04T17:17:01;5.77;118.99
65559;DHT22;52203;51.998;5.140;2023-04-04T17:19:31;5.65;118.99
65559;DHT22;52203;51.998;5.140;2023-04-04T17:21:58;5.43;118.99
65559;DHT22;52203;51.998;5.140;2023-04-04T17:24:24;5.41;118.99
65559;DHT22;52203;51.998;5.140;2023-04-04T17:26:51;5.31;118.99
65559;DHT22;52203;51.998;5.140;2023-04-04T17:29:17;4.32;118.99
65559;DHT22;52203;51.998;5.140;2023-04-04T17:31:43;3.92;118.99
65559;DHT22;52203;51.998;5.140;2023-04-04T17:34:16;3.85;118.99
65559;DHT22;52203;51.998;5.140;2023-04-04T17:36:42;3.83;118.99
65559;DHT22;52203;51.998;5.140;2023-04-04T17:39:08;3.73;118.99
65559;DHT22;52203;51.998;5.140;2023-04-04T17:41:34;3.67;118.99
65559;DHT22;52203;51.998;5.140;2023-04-04T17:44:00;3.61;118.99
65559;DHT22;52203;51.998;5.140;2023-04-04T17:46:26;3.60;118.99
65559;DHT22;52203;51.998;5.140;2023-04-04T17:48:52;3.48;118.99
65559;DHT22;52203;51.998;5.140;2023-04-04T17:51:18;3.38;118.99
65559;DHT22;52203;51.998;5.140;2023-04-04T17:53:44;3.30;118.99
65559;DHT22;52203;51.998;5.140;2023-04-04T17:56:10;3.16;118.99
65559;DHT22;52203;51.998;5.140;2023-04-04T17:58:37;3.12;118.99
65559;DHT22;52203;51.998;5.140;2023-04-04T18:01:04;3.16;118.99
65559;DHT22;52203;51.998;5.140;2023-04-04T18:03:30;3.08;118.99
65559;DHT22;52203;51.998;5.140;2023-04-04T18:05:55;3.01;118.99
65559;DHT22;52203;51.998;5.140;2023-04-04T18:08:21;2.96;118.99
65559;DHT22;52203;51.998;5.140;2023-04-04T18:10:47;2.94;118.99
65559;DHT22;52203;51.998;5.140;2023-04-04T18:13:13;2.81;118.99
65559;DHT22;52203;51.998;5.140;2023-04-04T18:15:38;2.78;118.99
65559;DHT22;52203;51.998;5.140;2023-04-04T18:18:04;2.72;118.99
65559;DHT22;52203;51.998;5.140;2023-04-04T18:20:31;2.74;118.99
65559;DHT22;52203;51.998;5.140;2023-04-04T18:22:57;3.49;118.99
65559;DHT22;52203;51.998;5.140;2023-04-04T18:25:23;3.41;118.99
65559;DHT22;52203;51.998;5.140;2023-04-04T18:27:49;3.41;118.99
65559;DHT22;52203;51.998;5.140;2023-04-04T18:30:15;3.33;118.99
65559;DHT22;52203;51.998;5.140;2023-04-04T18:32:40;3.31;118.99
65559;DHT22;52203;51.998;5.140;2023-04-04T18:35:07;3.27;118.99
65559;DHT22;52203;51.998;5.140;2023-04-04T18:37:33;3.21;118.99
65559;DHT22;52203;51.998;5.140;2023-04-04T18:39:58;3.23;118.99
65559;DHT22;52203;51.998;5.140;2023-04-04T18:42:25;2.29;118.99
65559;DHT22;52203;51.998;5.140;2023-04-04T18:44:54;2.22;118.99
65559;DHT22;52203;51.998;5.140;2023-04-04T18:47:19;2.19;118.99
65559;DHT22;52203;51.998;5.140;2023-04-04T18:49:48;2.16;118.99
65559;DHT22;52203;51.998;5.140;2023-04-04T18:52:14;2.10;118.99
65559;DHT22;52203;51.998;5.140;2023-04-04T18:54:39;2.08;118.99
65559;DHT22;52203;51.998;5.140;2023-04-04T18:57:05;2.01;118.99
65559;DHT22;52203;51.998;5.140;2023-04-04T18:59:31;1.99;118.99
65559;DHT22;52203;51.998;5.140;2023-04-04T19:01:56;1.87;118.99
65559;DHT22;52203;51.998;5.140;2023-04-04T19:04:22;1.87;118.99
65559;DHT22;52203;51.998;5.140;2023-04-04T19:06:49;1.84;118.99
65559;DHT22;52203;51.998;5.140;2023-04-04T19:09:16;1.80;118.99
65559;DHT22;52203;51.998;5.140;2023-04-04T19:11:43;1.75;118.99
65559;DHT22;52203;51.998;5.140;2023-04-04T19:14:13;1.73;118.99
65559;DHT22;52203;51.998;5.140;2023-04-04T19:16:45;1.68;118.99
65559;DHT22;52203;51.998;5.140;2023-04-04T19:19:11;1.64;118.99
65559;DHT22;52203;51.998;5.140;2023-04-04T19:21:51;1.57;118.99
65559;DHT22;52203;51.998;5.140;2023-04-04T19:24:19;1.52;118.99
65559;DHT22;52203;51.998;5.140;2023-04-04T19:26:50;1.50;118.99
65559;DHT22;52203;51.998;5.140;2023-04-04T19:29:23;1.50;118.99
65559;DHT22;52203;51.998;5.140;2023-04-04T19:31:50;1.42;118.99
65559;DHT22;52203;51.998;5.140;2023-04-04T19:34:18;1.38;118.99
65559;DHT22;52203;51.998;5.140;2023-04-04T19:36:43;1.32;118.99
65559;DHT22;52203;51.998;5.140;2023-04-04T19:39:09;1.28;118.99
65559;DHT22;52203;51.998;5.140;2023-04-04T19:41:38;1.24;118.99
65559;DHT22;52203;51.998;5.140;2023-04-04T19:44:17;1.26;118.99
65559;DHT22;52203;51.998;5.140;2023-04-04T19:46:49;1.18;118.99
65559;DHT22;52203;51.998;5.140;2023-04-04T19:49:17;1.16;118.99
65559;DHT22;52203;51.998;5.140;2023-04-04T19:51:54;1.08;118.99
65559;DHT22;52203;51.998;5.140;2023-04-04T19:54:24;1.04;118.99
65559;DHT22;52203;51.998;5.140;2023-04-04T19:56:59;1.01;118.99
65559;DHT22;52203;51.998;5.140;2023-04-04T20:02:49;0.88;118.99
65559;DHT22;52203;51.998;5.140;2023-04-04T20:08:54;0.72;118.99
65559;DHT22;52203;51.998;5.140;2023-04-04T20:11:38;0.68;118.99
65559;DHT22;52203;51.998;5.140;2023-04-04T20:14:19;0.57;118.99
65559;DHT22;52203;51.998;5.140;2023-04-04T20:16:53;0.49;118.99
65559;DHT22;52203;51.998;5.140;2023-04-04T20:23:12;0.38;118.99
65559;DHT22;52203;51.998;5.140;2023-04-04T20:33:27;0.18;118.99
65559;DHT22;52203;51.998;5.140;2023-04-04T20:36:41;0.13;118.99
65559;DHT22;52203;51.998;5.140;2023-04-04T20:43:01;0.12;118.99
65559;DHT22;52203;51.998;5.140;2023-04-04T20:48:41;0.06;118.99
65559;DHT22;52203;51.998;5.140;2023-04-04T20:51:28;0.13;118.99
65559;DHT22;52203;51.998;5.140;2023-04-04T20:54:07;0.09;118.99
65559;DHT22;52203;51.998;5.140;2023-04-04T21:15:20;-0.00;118.99
65559;DHT22;52203;51.998;5.140;2023-04-04T21:18:24;-0.06;118.99
65559;DHT22;52203;51.998;5.140;2023-04-04T21:21:06;-0.09;118.99
65559;DHT22;52203;51.998;5.140;2023-04-04T21:23:32;-0.07;118.99
65559;DHT22;52203;51.998;5.140;2023-04-04T21:26:36;-0.13;118.99
65559;DHT22;52203;51.998;5.140;2023-04-04T21:29:43;-0.15;118.99
65559;DHT22;52203;51.998;5.140;2023-04-04T21:32:09;-0.19;118.99
65559;DHT22;52203;51.998;5.140;2023-04-04T21:34:43;-0.22;118.99
65559;DHT22;52203;51.998;5.140;2023-04-04T21:37:22;-0.23;118.99
65559;DHT22;52203;51.998;5.140;2023-04-04T21:40:21;-0.19;118.99
65559;DHT22;52203;51.998;5.140;2023-04-04T21:43:49;-0.17;118.99
65559;DHT22;52203;51.998;5.140;2023-04-04T21:53:30;-0.28;118.99
65559;DHT22;52203;51.998;5.140;2023-04-04T21:56:23;-0.36;118.99
65559;DHT22;52203;51.998;5.140;2023-04-04T21:59:06;-0.44;118.99
65559;DHT22;52203;51.998;5.140;2023-04-04T22:02:09;-0.54;118.99
65559;DHT22;52203;51.998;5.140;2023-04-04T22:04:35;-0.53;118.99
65559;DHT22;52203;51.998;5.140;2023-04-04T22:07:41;-0.51;118.99
65559;DHT22;52203;51.998;5.140;2023-04-04T22:10:10;-0.50;118.99
65559;DHT22;52203;51.998;5.140;2023-04-04T22:12:45;-0.52;118.99
65559;DHT22;52203;51.998;5.140;2023-04-04T22:15:14;-0.47;118.99
65559;DHT22;52203;51.998;5.140;2023-04-04T22:18:20;-0.45;118.99
65559;DHT22;52203;51.998;5.140;2023-04-04T22:45:18;-1.74;118.99
65559;DHT22;52203;51.998;5.140;2023-04-04T23:02:44;-1.47;118.99
65559;DHT22;52203;51.998;5.140;2023-04-04T23:16:53;-2.97;118.99
65559;DHT22;52203;51.998;5.140;2023-04-04T23:55:00;-3.79;118.99
